sensor_id;sensor_type;location;lat;lon;timestamp;pressure;altitude;pressure_sealevel;temperature;humidity
46598;BME280;32318;48.858;8.252;2023-12-14T00:05:11;99292.06;;;7.56;100.00
46598;BME280;32318;48.858;8.252;2023-12-14T00:13:11;99294.38;;;7.50;100.00
46598;BME280;32318;48.858;8.252;2023-12-14T00:21:14;99309.50;;;7.50;100.00
46598;BME280;32318;48.858;8.252;2023-12-14T00:29:14;99328.25;;;7.48;100.00
46598;BME280;32318;48.858;8.252;2023-12-14T00:37:15;99325.44;;;7.50;100.00
46598;BME280;32318;48.858;8.252;2023-12-14T00:45:15;99329.44;;;7.54;100.00
46598;BME280;32318;48.858;8.252;2023-12-14T00:53:15;99344.34;;;7.55;100.00
46598;BME280;32318;48.858;8.252;2023-12-14T01:01:16;99357.47;;;7.57;100.00
46598;BME280;32318;48.858;8.252;2023-12-14T01:09:16;99368.25;;;7.55;100.00
46598;BME280;32318;48.858;8.252;2023-12-14T01:17:16;99384.84;;;7.57;100.00
46598;BME280;32318;48.858;8.252;2023-12-14T01:25:16;99396.47;;;7.56;100.00
46598;BME280;32318;48.858;8.252;2023-12-14T01:33:17;99408.44;;;7.52;100.00
46598;BME280;32318;48.858;8.252;2023-12-14T01:41:17;99421.56;;;7.53;100.00
46598;BME280;32318;48.858;8.252;2023-12-14T01:49:18;99436.81;;;7.51;100.00
46598;BME280;32318;48.858;8.252;2023-12-14T01:57:18;99450.28;;;7.50;100.00
46598;BME280;32318;48.858;8.252;2023-12-14T02:05:18;99457.06;;;7.52;100.00
46598;BME280;32318;48.858;8.252;2023-12-14T02:13:18;99466.03;;;7.51;100.00
46598;BME280;32318;48.858;8.252;2023-12-14T02:21:19;99464.72;;;7.47;100.00
46598;BME280;32318;48.858;8.252;2023-12-14T02:29:19;99474.84;;;7.44;100.00
46598;BME280;32318;48.858;8.252;2023-12-14T02:37:19;99484.78;;;7.42;100.00
46598;BME280;32318;48.858;8.252;2023-12-14T02:45:19;99487.44;;;7.42;100.00
46598;BME280;32318;48.858;8.252;2023-12-14T02:53:20;99501.69;;;7.41;100.00
46598;BME280;32318;48.858;8.252;2023-12-14T03:01:20;99512.16;;;7.42;100.00
46598;BME280;32318;48.858;8.252;2023-12-14T03:09:24;99524.13;;;7.46;100.00
46598;BME280;32318;48.858;8.252;2023-12-14T03:17:24;99533.25;;;7.44;100.00
46598;BME280;32318;48.858;8.252;2023-12-14T03:25:24;99533.25;;;7.44;100.00
46598;BME280;32318;48.858;8.252;2023-12-14T03:33:24;99553.19;;;7.48;100.00
46598;BME280;32318;48.858;8.252;2023-12-14T03:41:25;99557.50;;;7.49;100.00
46598;BME280;32318;48.858;8.252;2023-12-14T03:49:25;99573.59;;;7.47;100.00
46598;BME280;32318;48.858;8.252;2023-12-14T03:57:25;99585.22;;;7.46;100.00
46598;BME280;32318;48.858;8.252;2023-12-14T04:05:26;99607.28;;;7.47;100.00
46598;BME280;32318;48.858;8.252;2023-12-14T04:13:26;99620.75;;;7.45;100.00
46598;BME280;32318;48.858;8.252;2023-12-14T04:21:27;99636.00;;;7.43;100.00
46598;BME280;32318;48.858;8.252;2023-12-14T04:29:27;99649.28;;;7.43;100.00
46598;BME280;32318;48.858;8.252;2023-12-14T04:37:28;99655.09;;;7.47;100.00
46598;BME280;32318;48.858;8.252;2023-12-14T04:45:28;99673.38;;;7.50;100.00
46598;BME280;32318;48.858;8.252;2023-12-14T04:53:29;99682.84;;;7.52;100.00
46598;BME280;32318;48.858;8.252;2023-12-14T05:01:29;99694.69;;;7.58;100.00
46598;BME280;32318;48.858;8.252;2023-12-14T05:09:29;99710.28;;;7.53;100.00
46598;BME280;32318;48.858;8.252;2023-12-14T05:17:30;99731.53;;;7.53;100.00
46598;BME280;32318;48.858;8.252;2023-12-14T05:25:30;99743.13;;;7.52;100.00
46598;BME280;32318;48.858;8.252;2023-12-14T05:33:30;99755.56;;;7.51;100.00
46598;BME280;32318;48.858;8.252;2023-12-14T05:41:31;99767.72;;;7.54;100.00
46598;BME280;32318;48.858;8.252;2023-12-14T05:49:31;99780.84;;;7.56;100.00
46598;BME280;32318;48.858;8.252;2023-12-14T05:57:32;99800.72;;;7.51;100.00
46598;BME280;32318;48.858;8.252;2023-12-14T06:05:32;99814.69;;;7.53;100.00
46598;BME280;32318;48.858;8.252;2023-12-14T06:13:33;99823.34;;;7.56;100.00
46598;BME280;32318;48.858;8.252;2023-12-14T06:21:33;99836.78;;;7.54;100.00
46598;BME280;32318;48.858;8.252;2023-12-14T06:29:33;99855.22;;;7.56;100.00
46598;BME280;32318;48.858;8.252;2023-12-14T06:37:57;99875.50;;;7.57;100.00
46598;BME280;32318;48.858;8.252;2023-12-14T06:45:57;99888.25;;;7.53;100.00
46598;BME280;32318;48.858;8.252;2023-12-14T06:53:57;99904.47;;;7.50;100.00
46598;BME280;32318;48.858;8.252;2023-12-14T07:01:57;99922.56;;;7.46;100.00
46598;BME280;32318;48.858;8.252;2023-12-14T07:09:58;99943.09;;;7.44;100.00
46598;BME280;32318;48.858;8.252;2023-12-14T07:17:58;99955.03;;;7.40;100.00
46598;BME280;32318;48.858;8.252;2023-12-14T07:25:58;99970.81;;;7.42;100.00
46598;BME280;32318;48.858;8.252;2023-12-14T07:33:59;99990.38;;;7.41;100.00
46598;BME280;32318;48.858;8.252;2023-12-14T07:41:59;100001.53;;;7.44;100.00
46598;BME280;32318;48.858;8.252;2023-12-14T07:50:00;100008.53;;;7.45;100.00
46598;BME280;32318;48.858;8.252;2023-12-14T07:58:00;100025.84;;;7.49;100.00
46598;BME280;32318;48.858;8.252;2023-12-14T08:06:00;100043.31;;;7.52;100.00
46598;BME280;32318;48.858;8.252;2023-12-14T08:14:01;100050.31;;;7.53;100.00
46598;BME280;32318;48.858;8.252;2023-12-14T08:22:01;100077.53;;;7.55;100.00
46598;BME280;32318;48.858;8.252;2023-12-14T08:30:02;100095.16;;;7.56;100.00
46598;BME280;32318;48.858;8.252;2023-12-14T08:38:05;100114.97;;;7.62;100.00
46598;BME280;32318;48.858;8.252;2023-12-14T08:46:06;100129.78;;;7.64;100.00
46598;BME280;32318;48.858;8.252;2023-12-14T08:54:06;100150.47;;;7.71;100.00
46598;BME280;32318;48.858;8.252;2023-12-14T09:02:06;100163.84;;;7.79;100.00
46598;BME280;32318;48.858;8.252;2023-12-14T09:10:10;100180.34;;;7.82;100.00
46598;BME280;32318;48.858;8.252;2023-12-14T09:18:11;100190.38;;;7.89;100.00
46598;BME280;32318;48.858;8.252;2023-12-14T09:26:11;100197.63;;;7.96;100.00
46598;BME280;32318;48.858;8.252;2023-12-14T09:34:14;100210.69;;;8.08;100.00
46598;BME280;32318;48.858;8.252;2023-12-14T09:42:18;100242.69;;;8.16;100.00
46598;BME280;32318;48.858;8.252;2023-12-14T09:50:20;100267.94;;;8.12;100.00
46598;BME280;32318;48.858;8.252;2023-12-14T09:58:21;100276.34;;;8.07;100.00
46598;BME280;32318;48.858;8.252;2023-12-14T10:06:22;100272.84;;;8.07;100.00
46598;BME280;32318;48.858;8.252;2023-12-14T10:14:25;100271.94;;;8.16;100.00
46598;BME280;32318;48.858;8.252;2023-12-14T10:22:28;100296.13;;;8.23;100.00
46598;BME280;32318;48.858;8.252;2023-12-14T10:30:28;100298.53;;;8.26;100.00
46598;BME280;32318;48.858;8.252;2023-12-14T10:38:31;100300.75;;;8.30;100.00
46598;BME280;32318;48.858;8.252;2023-12-14T10:46:35;100316.38;;;8.33;100.00
46598;BME280;32318;48.858;8.252;2023-12-14T10:54:37;100322.81;;;8.41;100.00
46598;BME280;32318;48.858;8.252;2023-12-14T11:02:40;100335.25;;;8.40;100.00
46598;BME280;32318;48.858;8.252;2023-12-14T11:10:52;100348.56;;;8.40;100.00
46598;BME280;32318;48.858;8.252;2023-12-14T11:27:26;100363.38;;;8.43;100.00
46598;BME280;32318;48.858;8.252;2023-12-14T11:35:30;100376.16;;;8.49;100.00
46598;BME280;32318;48.858;8.252;2023-12-14T11:43:39;100390.81;;;8.53;100.00
46598;BME280;32318;48.858;8.252;2023-12-14T11:51:40;100406.78;;;8.53;100.00
46598;BME280;32318;48.858;8.252;2023-12-14T11:59:43;100403.69;;;8.58;100.00
46598;BME280;32318;48.858;8.252;2023-12-14T12:07:48;100408.13;;;8.67;100.00
46598;BME280;32318;48.858;8.252;2023-12-14T12:15:48;100406.25;;;8.77;100.00
46598;BME280;32318;48.858;8.252;2023-12-14T12:23:49;100417.91;;;8.76;100.00
46598;BME280;32318;48.858;8.252;2023-12-14T12:31:49;100419.47;;;8.69;100.00
46598;BME280;32318;48.858;8.252;2023-12-14T12:39:49;100428.00;;;8.73;100.00
46598;BME280;32318;48.858;8.252;2023-12-14T12:47:50;100431.81;;;8.70;100.00
46598;BME280;32318;48.858;8.252;2023-12-14T12:55:50;100428.00;;;8.73;100.00
46598;BME280;32318;48.858;8.252;2023-12-14T13:03:55;100426.88;;;8.75;100.00
46598;BME280;32318;48.858;8.252;2023-12-14T13:12:06;100438.06;;;8.79;100.00
46598;BME280;32318;48.858;8.252;2023-12-14T13:20:12;100456.34;;;8.92;100.00
46598;BME280;32318;48.858;8.252;2023-12-14T13:28:12;100459.63;;;8.86;97.82
46598;BME280;32318;48.858;8.252;2023-12-14T13:36:19;100477.56;;;8.84;97.98
46598;BME280;32318;48.858;8.252;2023-12-14T13:44:19;100494.13;;;8.77;98.47
46598;BME280;32318;48.858;8.252;2023-12-14T13:52:19;100509.53;;;8.74;99.24
46598;BME280;32318;48.858;8.252;2023-12-14T14:00:20;100521.03;;;8.74;99.18
46598;BME280;32318;48.858;8.252;2023-12-14T14:08:21;100538.13;;;8.72;98.62
46598;BME280;32318;48.858;8.252;2023-12-14T14:16:22;100552.56;;;8.69;99.74
46598;BME280;32318;48.858;8.252;2023-12-14T14:24:25;100557.34;;;8.66;99.53
46598;BME280;32318;48.858;8.252;2023-12-14T14:32:25;100573.75;;;8.61;99.64
46598;BME280;32318;48.858;8.252;2023-12-14T14:40:26;100589.44;;;8.54;99.84
46598;BME280;32318;48.858;8.252;2023-12-14T14:48:26;100599.53;;;8.51;100.00
46598;BME280;32318;48.858;8.252;2023-12-14T14:56:29;100622.34;;;8.43;100.00
46598;BME280;32318;48.858;8.252;2023-12-14T15:05:01;100638.41;;;8.42;100.00
46598;BME280;32318;48.858;8.252;2023-12-14T15:13:01;100648.66;;;8.37;100.00
46598;BME280;32318;48.858;8.252;2023-12-14T15:21:02;100658.19;;;8.29;100.00
46598;BME280;32318;48.858;8.252;2023-12-14T15:29:03;100668.25;;;8.26;100.00
46598;BME280;32318;48.858;8.252;2023-12-14T15:37:04;100688.00;;;8.23;100.00
46598;BME280;32318;48.858;8.252;2023-12-14T15:45:07;100707.16;;;8.17;100.00
46598;BME280;32318;48.858;8.252;2023-12-14T15:53:08;100714.41;;;8.15;100.00
46598;BME280;32318;48.858;8.252;2023-12-14T16:01:10;100728.97;;;8.11;100.00
46598;BME280;32318;48.858;8.252;2023-12-14T16:09:11;100746.63;;;8.22;100.00
46598;BME280;32318;48.858;8.252;2023-12-14T16:17:13;100755.78;;;8.39;99.44
46598;BME280;32318;48.858;8.252;2023-12-14T16:25:13;100784.13;;;8.50;98.84
46598;BME280;32318;48.858;8.252;2023-12-14T16:33:13;100807.94;;;8.51;98.04
46598;BME280;32318;48.858;8.252;2023-12-14T16:41:14;100812.63;;;8.28;97.81
46598;BME280;32318;48.858;8.252;2023-12-14T16:49:14;100813.38;;;8.09;97.33
46598;BME280;32318;48.858;8.252;2023-12-14T16:57:15;100836.34;;;8.10;97.90
46598;BME280;32318;48.858;8.252;2023-12-14T17:05:15;100854.53;;;8.14;98.44
46598;BME280;32318;48.858;8.252;2023-12-14T17:13:15;100871.34;;;8.15;98.43
46598;BME280;32318;48.858;8.252;2023-12-14T17:21:20;100897.34;;;8.11;99.31
46598;BME280;32318;48.858;8.252;2023-12-14T17:29:21;100905.66;;;8.18;99.13
46598;BME280;32318;48.858;8.252;2023-12-14T17:37:21;100923.44;;;8.18;99.82
46598;BME280;32318;48.858;8.252;2023-12-14T17:45:21;100934.91;;;8.18;99.87
46598;BME280;32318;48.858;8.252;2023-12-14T17:53:23;100946.13;;;8.22;99.82
46598;BME280;32318;48.858;8.252;2023-12-14T18:01:23;100956.66;;;8.23;100.00
46598;BME280;32318;48.858;8.252;2023-12-14T18:09:23;100972.63;;;8.23;100.00
46598;BME280;32318;48.858;8.252;2023-12-14T18:17:23;100974.50;;;8.11;100.00
46598;BME280;32318;48.858;8.252;2023-12-14T18:25:24;100984.34;;;7.99;98.14
46598;BME280;32318;48.858;8.252;2023-12-14T18:33:25;100990.00;;;7.85;96.89
46598;BME280;32318;48.858;8.252;2023-12-14T18:41:26;101017.09;;;7.79;96.90
46598;BME280;32318;48.858;8.252;2023-12-14T18:49:26;101036.19;;;7.73;96.74
46598;BME280;32318;48.858;8.252;2023-12-14T18:57:28;101046.72;;;7.63;96.20
46598;BME280;32318;48.858;8.252;2023-12-14T19:05:28;101073.69;;;7.58;95.59
46598;BME280;32318;48.858;8.252;2023-12-14T19:13:28;101083.50;;;7.46;94.43
46598;BME280;32318;48.858;8.252;2023-12-14T19:21:28;101090.88;;;7.43;94.30
46598;BME280;32318;48.858;8.252;2023-12-14T19:29:29;101103.66;;;7.37;93.90
46598;BME280;32318;48.858;8.252;2023-12-14T19:37:31;101115.28;;;7.36;94.15
46598;BME280;32318;48.858;8.252;2023-12-14T19:45:31;101130.94;;;7.40;95.69
46598;BME280;32318;48.858;8.252;2023-12-14T19:53:32;101147.16;;;7.36;95.84
46598;BME280;32318;48.858;8.252;2023-12-14T20:01:32;101158.97;;;7.32;95.79
46598;BME280;32318;48.858;8.252;2023-12-14T20:09:36;101170.56;;;7.31;96.20
46598;BME280;32318;48.858;8.252;2023-12-14T20:17:36;101180.72;;;7.26;95.47
46598;BME280;32318;48.858;8.252;2023-12-14T20:25:37;101197.47;;;7.27;95.96
46598;BME280;32318;48.858;8.252;2023-12-14T20:33:37;101225.25;;;7.22;95.02
46598;BME280;32318;48.858;8.252;2023-12-14T20:41:37;101243.47;;;7.16;94.29
46598;BME280;32318;48.858;8.252;2023-12-14T20:49:38;101259.13;;;7.07;94.28
46598;BME280;32318;48.858;8.252;2023-12-14T20:57:40;101273.59;;;7.03;94.43
46598;BME280;32318;48.858;8.252;2023-12-14T21:05:40;101285.91;;;7.04;94.53
46598;BME280;32318;48.858;8.252;2023-12-14T21:13:41;101293.38;;;6.99;93.43
46598;BME280;32318;48.858;8.252;2023-12-14T21:21:41;101313.06;;;6.97;94.73
46598;BME280;32318;48.858;8.252;2023-12-14T21:29:41;101315.31;;;6.90;94.92
46598;BME280;32318;48.858;8.252;2023-12-14T21:37:42;101325.19;;;6.88;95.81
46598;BME280;32318;48.858;8.252;2023-12-14T21:45:43;101336.47;;;6.79;94.89
46598;BME280;32318;48.858;8.252;2023-12-14T21:53:43;101349.25;;;6.73;94.61
46598;BME280;32318;48.858;8.252;2023-12-14T22:01:44;101352.34;;;6.67;94.16
46598;BME280;32318;48.858;8.252;2023-12-14T22:09:44;101371.34;;;6.61;93.96
46598;BME280;32318;48.858;8.252;2023-12-14T22:17:44;101381.97;;;6.61;94.05
46598;BME280;32318;48.858;8.252;2023-12-14T22:25:44;101379.97;;;6.52;92.69
46598;BME280;32318;48.858;8.252;2023-12-14T22:33:45;101401.19;;;6.52;93.46
46598;BME280;32318;48.858;8.252;2023-12-14T22:41:45;101413.19;;;6.44;92.94
46598;BME280;32318;48.858;8.252;2023-12-14T22:49:47;101420.66;;;6.39;91.47
46598;BME280;32318;48.858;8.252;2023-12-14T22:57:47;101431.47;;;6.36;92.67
46598;BME280;32318;48.858;8.252;2023-12-14T23:05:47;101451.09;;;6.34;91.99
46598;BME280;32318;48.858;8.252;2023-12-14T23:13:48;101458.75;;;6.25;91.18
46598;BME280;32318;48.858;8.252;2023-12-14T23:21:48;101480.16;;;6.22;91.30
46598;BME280;32318;48.858;8.252;2023-12-14T23:29:49;101495.63;;;6.16;91.26
46598;BME280;32318;48.858;8.252;2023-12-14T23:37:49;101511.13;;;6.09;91.37
46598;BME280;32318;48.858;8.252;2023-12-14T23:45:50;101524.06;;;6.14;93.07
46598;BME280;32318;48.858;8.252;2023-12-14T23:53:51;101532.09;;;6.12;92.59
